Time;durP1;ratioP1;P1;durP2;ratioP2;P2;SDS_P1;SDS_P2;PMS_P1;PMS_P2;Temp;Humidity;BMP_temperature;BMP_pressure;BME280_temperature;BME280_humidity;BME280_pressure;Samples;Min_cycle;Max_cycle;Signal;HPM_P1;HPM_P2
2021/12/27 00:01:46;;;;;;;19.65;6.90;;;;;;;;;;2343119;57;21046;-74
2021/12/27 00:04:13;;;;;;;14.45;6.60;;;;;;;;;;2342709;57;21046;-74
2021/12/27 00:06:40;;;;;;;12.70;6.00;;;;;;;;;;2380316;53;22169;-74
2021/12/27 00:09:07;;;;;;;14.82;6.60;;;;;;;;;;2342524;57;21190;-74
2021/12/27 00:11:34;;;;;;;12.13;6.20;;;;;;;;;;2360695;53;21034;-74
2021/12/27 00:14:01;;;;;;;16.77;6.97;;;;;;;;;;2397304;53;21149;-74
2021/12/27 00:16:28;;;;;;;18.42;6.78;;;;;;;;;;2343430;57;21094;-74
2021/12/27 00:18:55;;;;;;;13.40;6.57;;;;;;;;;;2342911;57;21038;-74
2021/12/27 00:21:22;;;;;;;14.07;6.55;;;;;;;;;;2342996;57;21054;-74
2021/12/27 00:23:49;;;;;;;11.65;6.22;;;;;;;;;;2342669;57;21122;-74
2021/12/27 00:26:17;;;;;;;14.50;6.45;;;;;;;;;;2343080;57;21101;-74
2021/12/27 00:28:43;;;;;;;20.80;6.97;;;;;;;;;;2342943;57;21113;-74
2021/12/27 00:31:11;;;;;;;14.63;6.15;;;;;;;;;;2342396;57;21094;-74
2021/12/27 00:33:38;;;;;;;15.50;6.22;;;;;;;;;;2343374;57;21054;-74
2021/12/27 00:36:05;;;;;;;17.65;6.93;;;;;;;;;;2363631;53;21126;-74
2021/12/27 00:38:32;;;;;;;14.40;6.07;;;;;;;;;;2366166;53;21030;-74
2021/12/27 00:40:59;;;;;;;14.65;6.78;;;;;;;;;;2404605;53;21060;-74
2021/12/27 00:43:26;;;;;;;12.93;6.45;;;;;;;;;;2342552;57;21114;-74
2021/12/27 00:45:53;;;;;;;19.02;7.20;;;;;;;;;;2343564;57;21046;-74
2021/12/27 00:48:20;;;;;;;17.75;7.22;;;;;;;;;;2342943;57;21650;-74
2021/12/27 00:50:47;;;;;;;17.33;7.50;;;;;;;;;;2343043;57;21142;-74
2021/12/27 00:53:14;;;;;;;18.62;7.82;;;;;;;;;;2343020;57;21126;-74
2021/12/27 00:55:41;;;;;;;14.98;6.50;;;;;;;;;;2343698;57;21173;-74
2021/12/27 00:58:08;;;;;;;17.80;6.87;;;;;;;;;;2343523;57;21129;-74
2021/12/27 01:00:36;;;;;;;17.42;7.60;;;;;;;;;;2347678;53;21109;-74
2021/12/27 01:03:04;;;;;;;17.70;7.78;;;;;;;;;;2382497;53;21070;-74
2021/12/27 01:05:31;;;;;;;16.02;7.22;;;;;;;;;;2342832;57;21074;-74
2021/12/27 01:07:59;;;;;;;17.00;6.97;;;;;;;;;;2342577;57;21098;-74
2021/12/27 01:13:23;;;;;;;18.08;7.25;;;;;;;;;;2372630;53;21644;-74
2021/12/27 01:16:10;;;;;;;18.60;8.70;;;;;;;;;;2342949;57;21106;-73
2021/12/27 01:18:37;;;;;;;18.42;8.30;;;;;;;;;;2342223;57;21145;-74
2021/12/27 01:21:04;;;;;;;19.25;7.95;;;;;;;;;;2342453;57;21121;-74
2021/12/27 01:23:31;;;;;;;24.27;8.70;;;;;;;;;;2343031;57;21046;-74
2021/12/27 01:25:58;;;;;;;17.20;7.57;;;;;;;;;;2342685;57;21129;-74
2021/12/27 01:28:25;;;;;;;27.10;9.02;;;;;;;;;;2342958;57;21058;-74
2021/12/27 01:30:52;;;;;;;22.87;8.45;;;;;;;;;;2342795;57;21050;-74
2021/12/27 01:33:21;;;;;;;21.25;9.23;;;;;;;;;;2373584;53;21098;-74
2021/12/27 01:35:49;;;;;;;19.55;8.45;;;;;;;;;;2342699;57;21089;-74
2021/12/27 01:38:16;;;;;;;19.98;8.48;;;;;;;;;;2343046;57;21027;-74
2021/12/27 01:40:44;;;;;;;22.23;8.65;;;;;;;;;;2342955;57;21047;-74
2021/12/27 01:43:13;;;;;;;18.40;9.10;;;;;;;;;;2343640;57;21046;-74
2021/12/27 01:45:42;;;;;;;25.98;9.20;;;;;;;;;;2343141;57;21548;-74
2021/12/27 01:48:10;;;;;;;20.85;9.30;;;;;;;;;;2342866;57;21050;-74
2021/12/27 01:50:39;;;;;;;25.90;9.13;;;;;;;;;;2342413;57;21062;-74
2021/12/27 01:53:06;;;;;;;20.17;8.35;;;;;;;;;;2343325;57;21046;-74
2021/12/27 01:55:37;;;;;;;24.25;9.63;;;;;;;;;;2343245;53;21553;-74
2021/12/27 01:58:04;;;;;;;21.98;9.48;;;;;;;;;;2342955;57;21640;-74
2021/12/27 02:00:31;;;;;;;20.67;9.10;;;;;;;;;;2342929;57;21110;-74
2021/12/27 02:02:58;;;;;;;19.48;8.73;;;;;;;;;;2343053;57;21568;-74
2021/12/27 02:05:26;;;;;;;23.83;9.63;;;;;;;;;;2343290;57;21026;-74
2021/12/27 02:07:53;;;;;;;21.23;9.38;;;;;;;;;;2345929;53;21046;-74
2021/12/27 02:10:20;;;;;;;25.42;9.90;;;;;;;;;;2342647;57;21042;-74
2021/12/27 02:12:47;;;;;;;23.67;8.98;;;;;;;;;;2347471;53;21038;-74
2021/12/27 02:15:14;;;;;;;22.75;9.85;;;;;;;;;;2342734;57;21066;-74
2021/12/27 02:17:42;;;;;;;18.23;8.88;;;;;;;;;;2343069;57;21596;-74
2021/12/27 02:20:11;;;;;;;23.75;9.82;;;;;;;;;;2342707;57;21576;-74
2021/12/27 02:22:40;;;;;;;23.42;9.77;;;;;;;;;;2446597;53;21660;-74
2021/12/27 02:25:08;;;;;;;21.83;9.07;;;;;;;;;;2343718;57;21061;-74
2021/12/27 02:27:35;;;;;;;19.02;9.32;;;;;;;;;;2360099;53;21603;-74
2021/12/27 02:30:04;;;;;;;22.65;9.82;;;;;;;;;;2417644;53;21102;-74
2021/12/27 02:32:31;;;;;;;29.98;11.15;;;;;;;;;;2343556;57;21058;-74
2021/12/27 02:34:58;;;;;;;28.97;10.47;;;;;;;;;;2343266;57;21113;-74
2021/12/27 02:37:25;;;;;;;23.55;10.07;;;;;;;;;;2343591;57;21613;-74
2021/12/27 02:39:52;;;;;;;23.15;10.02;;;;;;;;;;2342072;57;21169;-74
2021/12/27 02:42:20;;;;;;;23.10;9.90;;;;;;;;;;2386652;53;21042;-74
2021/12/27 02:44:47;;;;;;;36.47;11.30;;;;;;;;;;2343651;57;21050;-74
2021/12/27 02:47:16;;;;;;;20.52;9.80;;;;;;;;;;2342647;57;21188;-74
2021/12/27 02:49:43;;;;;;;27.67;11.75;;;;;;;;;;2343016;57;21118;-74
2021/12/27 02:52:10;;;;;;;21.90;9.95;;;;;;;;;;2343375;57;21035;-74
2021/12/27 02:54:40;;;;;;;29.83;10.95;;;;;;;;;;2343678;57;21034;-74
2021/12/27 02:57:08;;;;;;;26.70;11.25;;;;;;;;;;2343195;57;21042;-74
2021/12/27 02:59:35;;;;;;;25.10;10.70;;;;;;;;;;2342726;57;21647;-74
2021/12/27 03:02:02;;;;;;;30.05;11.15;;;;;;;;;;2343366;53;21129;-74
2021/12/27 03:04:34;;;;;;;26.92;11.00;;;;;;;;;;2343263;57;22189;-74
2021/12/27 03:07:01;;;;;;;24.77;10.52;;;;;;;;;;2343672;57;21125;-74
2021/12/27 03:09:29;;;;;;;29.73;11.38;;;;;;;;;;2342753;57;21090;-74
2021/12/27 03:11:56;;;;;;;26.03;10.87;;;;;;;;;;2343689;57;21469;-74
2021/12/27 03:14:23;;;;;;;25.02;10.15;;;;;;;;;;2343155;57;21097;-74
2021/12/27 03:16:50;;;;;;;24.58;10.73;;;;;;;;;;2343652;57;21133;-74
2021/12/27 03:19:17;;;;;;;25.42;10.93;;;;;;;;;;2343078;57;21062;-74
2021/12/27 03:21:44;;;;;;;28.58;10.73;;;;;;;;;;2343453;57;21547;-74
2021/12/27 03:24:11;;;;;;;33.45;12.30;;;;;;;;;;2343075;57;21094;-74
2021/12/27 03:26:38;;;;;;;29.25;11.77;;;;;;;;;;2343617;57;21050;-74
2021/12/27 03:29:05;;;;;;;31.58;12.55;;;;;;;;;;2343121;57;21647;-74
2021/12/27 03:31:32;;;;;;;31.73;11.73;;;;;;;;;;2346373;53;21523;-74
2021/12/27 03:33:59;;;;;;;32.35;11.95;;;;;;;;;;2342095;57;21133;-74
2021/12/27 03:36:28;;;;;;;35.65;13.75;;;;;;;;;;2343386;53;21110;-74
2021/12/27 03:38:55;;;;;;;29.08;11.63;;;;;;;;;;2354529;53;21126;-74
2021/12/27 03:41:24;;;;;;;29.08;11.63;;;;;;;;;;2341894;53;21034;-74
2021/12/27 03:43:51;;;;;;;39.15;12.82;;;;;;;;;;2342055;57;21172;-74
2021/12/27 03:46:18;;;;;;;26.67;11.48;;;;;;;;;;2342480;57;21528;-74
2021/12/27 03:48:45;;;;;;;26.60;11.98;;;;;;;;;;2342989;53;21624;-74
2021/12/27 03:51:12;;;;;;;32.38;12.25;;;;;;;;;;2343307;57;21173;-74
2021/12/27 03:53:39;;;;;;;31.90;12.80;;;;;;;;;;2354345;53;21046;-74
2021/12/27 03:56:08;;;;;;;26.48;11.98;;;;;;;;;;2343012;57;21022;-74
2021/12/27 03:58:47;;;;;;;33.08;13.02;;;;;;;;;;2343231;57;21034;-74
2021/12/27 04:01:16;;;;;;;30.35;13.25;;;;;;;;;;2342955;57;21585;-74
2021/12/27 04:03:44;;;;;;;32.05;12.80;;;;;;;;;;2342965;57;21340;-74
2021/12/27 04:06:11;;;;;;;26.50;11.40;;;;;;;;;;2346109;53;21110;-74
2021/12/27 04:08:38;;;;;;;29.33;11.73;;;;;;;;;;2343024;57;21042;-74
2021/12/27 04:11:05;;;;;;;32.78;13.02;;;;;;;;;;2342556;57;21201;-74
2021/12/27 04:13:33;;;;;;;27.52;11.25;;;;;;;;;;2343031;57;21110;-74
2021/12/27 04:16:00;;;;;;;26.95;11.35;;;;;;;;;;2343176;57;21112;-74
2021/12/27 04:18:28;;;;;;;25.73;11.75;;;;;;;;;;2343154;57;21047;-74
2021/12/27 04:20:55;;;;;;;29.90;11.98;;;;;;;;;;2342582;57;21031;-74
2021/12/27 04:23:22;;;;;;;29.77;11.93;;;;;;;;;;2342946;57;21101;-74
2021/12/27 04:25:49;;;;;;;31.73;13.25;;;;;;;;;;2343439;57;21122;-74
2021/12/27 04:28:17;;;;;;;32.13;12.18;;;;;;;;;;2342729;57;21106;-74
2021/12/27 04:30:44;;;;;;;31.65;12.57;;;;;;;;;;2342735;57;21062;-74
2021/12/27 04:33:11;;;;;;;29.83;12.95;;;;;;;;;;2343231;57;21584;-74
2021/12/27 04:35:38;;;;;;;29.90;12.93;;;;;;;;;;2343233;57;21108;-74
2021/12/27 04:38:06;;;;;;;34.17;12.55;;;;;;;;;;2342817;57;21137;-74
2021/12/27 04:40:34;;;;;;;39.08;12.77;;;;;;;;;;2358940;53;21082;-74
2021/12/27 04:43:05;;;;;;;29.83;13.00;;;;;;;;;;2428307;53;21109;-74
2021/12/27 04:45:32;;;;;;;35.78;12.70;;;;;;;;;;2343345;57;21118;-74
2021/12/27 04:48:01;;;;;;;31.48;11.85;;;;;;;;;;2343441;57;21022;-74
2021/12/27 04:50:28;;;;;;;36.33;13.02;;;;;;;;;;2342715;57;21394;-74
2021/12/27 04:52:55;;;;;;;31.90;12.73;;;;;;;;;;2343823;57;21058;-74
2021/12/27 04:55:23;;;;;;;33.42;13.43;;;;;;;;;;2343239;57;21034;-74
2021/12/27 04:57:50;;;;;;;34.22;12.57;;;;;;;;;;2342540;57;21102;-74
2021/12/27 05:00:17;;;;;;;29.15;12.82;;;;;;;;;;2342419;57;21521;-74
2021/12/27 05:02:44;;;;;;;35.88;13.75;;;;;;;;;;2343343;57;21062;-74
2021/12/27 05:05:11;;;;;;;32.08;14.25;;;;;;;;;;2342918;57;21541;-74
2021/12/27 05:07:38;;;;;;;31.52;13.75;;;;;;;;;;2343125;57;21106;-74
2021/12/27 05:10:06;;;;;;;29.73;12.98;;;;;;;;;;2343093;57;21054;-74
2021/12/27 05:15:20;;;;;;;35.40;15.30;;;;;;;;;;2279079;59;21056;-75
2021/12/27 05:17:47;;;;;;;32.03;13.20;;;;;;;;;;2280587;59;21044;-76
2021/12/27 05:20:14;;;;;;;32.25;13.75;;;;;;;;;;2541021;54;21050;-76
2021/12/27 05:22:41;;;;;;;34.13;12.43;;;;;;;;;;2307246;58;21523;-77
2021/12/27 05:25:11;;;;;;;32.67;12.88;;;;;;;;;;2306851;58;21176;-76
2021/12/27 05:27:39;;;;;;;36.85;12.18;;;;;;;;;;2545266;54;21172;-76
2021/12/27 05:30:07;;;;;;;33.83;13.68;;;;;;;;;;2306271;58;21057;-76
2021/12/27 05:32:35;;;;;;;35.88;13.40;;;;;;;;;;2545146;54;21543;-75
2021/12/27 05:35:03;;;;;;;34.70;13.43;;;;;;;;;;2305626;58;21069;-75
2021/12/27 05:37:30;;;;;;;30.88;12.20;;;;;;;;;;2303158;58;21057;-76
2021/12/27 05:40:04;;;;;;;36.30;12.75;;;;;;;;;;2302976;58;21065;-76
2021/12/27 05:42:31;;;;;;;38.28;14.50;;;;;;;;;;2542907;54;21061;-76
2021/12/27 05:44:58;;;;;;;31.27;13.73;;;;;;;;;;2305055;58;21061;-76
2021/12/27 05:47:25;;;;;;;36.35;13.75;;;;;;;;;;2543113;54;21065;-76
2021/12/27 05:49:52;;;;;;;34.13;14.55;;;;;;;;;;2304217;58;21061;-77
2021/12/27 05:52:19;;;;;;;35.38;13.75;;;;;;;;;;2305500;58;21103;-76
2021/12/27 05:54:46;;;;;;;38.17;15.02;;;;;;;;;;2307107;58;21105;-76
2021/12/27 05:57:13;;;;;;;35.97;14.98;;;;;;;;;;2307309;58;21140;-76
2021/12/27 05:59:40;;;;;;;35.78;15.50;;;;;;;;;;2306473;58;21045;-77
2021/12/27 06:02:07;;;;;;;39.00;15.40;;;;;;;;;;2306829;58;21053;-76
2021/12/27 06:04:34;;;;;;;43.30;15.20;;;;;;;;;;2544945;54;21623;-76
2021/12/27 06:07:01;;;;;;;41.15;14.63;;;;;;;;;;2545558;54;21559;-76
2021/12/27 06:09:28;;;;;;;38.30;15.48;;;;;;;;;;2544493;54;21121;-76
2021/12/27 06:11:55;;;;;;;32.13;14.63;;;;;;;;;;2306780;58;22171;-75
2021/12/27 06:14:22;;;;;;;32.28;15.52;;;;;;;;;;2306493;58;21041;-76
2021/12/27 06:16:49;;;;;;;40.20;14.60;;;;;;;;;;2544827;54;21120;-76
2021/12/27 06:19:17;;;;;;;39.10;15.48;;;;;;;;;;2306776;58;21061;-76
2021/12/27 06:21:44;;;;;;;36.28;15.20;;;;;;;;;;2307149;58;21132;-76
2021/12/27 06:24:11;;;;;;;36.58;15.10;;;;;;;;;;2307171;58;22266;-75
2021/12/27 06:26:38;;;;;;;37.10;14.60;;;;;;;;;;2307078;58;21049;-76
2021/12/27 06:29:05;;;;;;;36.28;15.52;;;;;;;;;;2306561;58;21053;-76
2021/12/27 06:31:32;;;;;;;35.97;14.70;;;;;;;;;;2545548;54;21144;-75
2021/12/27 06:33:59;;;;;;;40.05;15.43;;;;;;;;;;2306974;58;21064;-76
2021/12/27 06:36:26;;;;;;;40.72;16.30;;;;;;;;;;2545710;54;21574;-76
2021/12/27 06:38:54;;;;;;;35.22;14.07;;;;;;;;;;2544823;54;21049;-76
2021/12/27 06:41:24;;;;;;;41.70;14.57;;;;;;;;;;2306987;58;21140;-76
2021/12/27 06:43:51;;;;;;;36.03;14.70;;;;;;;;;;2306733;58;21152;-76
2021/12/27 06:46:18;;;;;;;44.45;16.42;;;;;;;;;;2307202;58;21639;-76
2021/12/27 06:48:45;;;;;;;39.53;15.93;;;;;;;;;;2306388;58;21077;-76
2021/12/27 06:51:12;;;;;;;45.33;16.25;;;;;;;;;;2307113;58;21045;-76
2021/12/27 06:53:39;;;;;;;43.47;16.20;;;;;;;;;;2306874;58;21061;-77
2021/12/27 06:56:06;;;;;;;37.72;15.23;;;;;;;;;;2545890;54;21133;-76
2021/12/27 06:58:33;;;;;;;42.28;17.27;;;;;;;;;;2307168;58;21053;-76
2021/12/27 07:01:01;;;;;;;33.28;15.38;;;;;;;;;;2545314;54;21117;-76
2021/12/27 07:03:28;;;;;;;40.85;16.50;;;;;;;;;;2546177;54;21057;-76
2021/12/27 07:05:55;;;;;;;37.28;16.27;;;;;;;;;;2545450;54;21559;-76
2021/12/27 07:08:22;;;;;;;41.53;14.98;;;;;;;;;;2545573;54;21107;-76
2021/12/27 07:10:49;;;;;;;43.10;16.30;;;;;;;;;;2306475;58;21064;-76
2021/12/27 07:13:16;;;;;;;38.08;16.87;;;;;;;;;;2545859;54;21061;-76
2021/12/27 07:15:44;;;;;;;39.13;15.85;;;;;;;;;;2307058;58;21049;-75
2021/12/27 07:18:12;;;;;;;45.95;18.15;;;;;;;;;;2307020;58;21057;-75
2021/12/27 07:20:40;;;;;;;40.53;16.62;;;;;;;;;;2307075;58;21061;-75
2021/12/27 07:23:08;;;;;;;41.85;18.30;;;;;;;;;;2545589;54;21459;-76
2021/12/27 07:25:35;;;;;;;41.63;16.62;;;;;;;;;;2307308;58;21140;-76
2021/12/27 07:28:02;;;;;;;46.47;16.55;;;;;;;;;;2545636;54;21156;-75
2021/12/27 07:30:29;;;;;;;48.78;17.37;;;;;;;;;;2306916;58;21539;-76
2021/12/27 07:32:56;;;;;;;40.60;16.12;;;;;;;;;;2307307;58;21069;-76
2021/12/27 07:35:23;;;;;;;41.10;17.30;;;;;;;;;;2307007;58;21069;-76
2021/12/27 07:37:50;;;;;;;38.58;15.88;;;;;;;;;;2306340;58;21101;-76
2021/12/27 07:40:17;;;;;;;43.92;17.90;;;;;;;;;;2305931;58;21057;-75
2021/12/27 07:42:44;;;;;;;46.25;19.23;;;;;;;;;;2545591;54;21671;-76
2021/12/27 07:45:12;;;;;;;43.28;17.70;;;;;;;;;;2306966;58;21136;-75
2021/12/27 07:47:39;;;;;;;41.35;16.52;;;;;;;;;;2306884;58;21120;-76
2021/12/27 07:50:07;;;;;;;44.28;15.98;;;;;;;;;;2544846;54;21096;-76
2021/12/27 07:52:34;;;;;;;43.33;17.58;;;;;;;;;;2545084;54;21599;-75
2021/12/27 07:55:02;;;;;;;41.37;17.92;;;;;;;;;;2544973;54;21683;-77
2021/12/27 07:57:29;;;;;;;39.45;17.15;;;;;;;;;;2306922;58;21046;-75
2021/12/27 07:59:56;;;;;;;42.13;16.58;;;;;;;;;;2306283;58;21575;-76
2021/12/27 08:02:23;;;;;;;37.83;16.98;;;;;;;;;;2545103;54;21026;-76
2021/12/27 08:04:50;;;;;;;48.40;19.02;;;;;;;;;;2545447;54;21042;-77
2021/12/27 08:07:17;;;;;;;46.75;17.85;;;;;;;;;;2307154;58;21049;-76
2021/12/27 08:09:44;;;;;;;45.97;17.55;;;;;;;;;;2306823;58;21044;-76
2021/12/27 08:12:12;;;;;;;44.70;18.02;;;;;;;;;;2306837;58;21049;-76
2021/12/27 08:14:39;;;;;;;42.25;16.48;;;;;;;;;;2544053;54;21109;-76
2021/12/27 08:17:07;;;;;;;48.97;18.83;;;;;;;;;;2306592;58;21060;-76
2021/12/27 08:19:34;;;;;;;44.50;19.62;;;;;;;;;;2305783;58;21532;-76
2021/12/27 08:22:01;;;;;;;48.05;18.60;;;;;;;;;;2306609;58;21051;-76
2021/12/27 08:24:28;;;;;;;38.30;16.98;;;;;;;;;;2306566;58;21065;-76
2021/12/27 08:26:55;;;;;;;44.15;18.00;;;;;;;;;;2306568;58;21191;-76
2021/12/27 08:29:22;;;;;;;38.97;17.40;;;;;;;;;;2306331;58;21575;-76
2021/12/27 08:31:49;;;;;;;47.35;18.98;;;;;;;;;;2545020;54;21113;-76
2021/12/27 08:34:16;;;;;;;47.78;18.12;;;;;;;;;;2306546;58;21662;-76
2021/12/27 08:36:43;;;;;;;49.00;19.83;;;;;;;;;;2306998;58;21057;-75
2021/12/27 08:39:10;;;;;;;45.72;19.20;;;;;;;;;;2544805;54;21642;-76
2021/12/27 08:41:37;;;;;;;50.17;19.67;;;;;;;;;;2545459;54;21048;-76
2021/12/27 08:44:05;;;;;;;44.80;18.25;;;;;;;;;;2545238;54;21050;-76
2021/12/27 08:46:32;;;;;;;43.63;18.55;;;;;;;;;;2545121;54;21101;-75
2021/12/27 08:48:59;;;;;;;52.60;21.10;;;;;;;;;;2306393;58;21139;-76
2021/12/27 08:51:26;;;;;;;51.60;19.65;;;;;;;;;;2306604;58;21144;-76
2021/12/27 08:53:54;;;;;;;45.92;19.58;;;;;;;;;;2306926;58;21115;-76
2021/12/27 08:56:21;;;;;;;49.78;17.80;;;;;;;;;;2306985;58;21129;-76
2021/12/27 08:58:48;;;;;;;44.35;19.67;;;;;;;;;;2306282;58;21558;-76
2021/12/27 09:01:15;;;;;;;47.72;19.35;;;;;;;;;;2306374;58;21100;-76
2021/12/27 09:03:42;;;;;;;51.55;19.73;;;;;;;;;;2545179;54;21053;-76
2021/12/27 09:06:10;;;;;;;44.72;18.92;;;;;;;;;;2305553;58;21105;-76
2021/12/27 09:08:37;;;;;;;42.78;18.17;;;;;;;;;;2306182;58;21113;-76
2021/12/27 09:11:04;;;;;;;48.83;19.50;;;;;;;;;;2305865;58;21141;-76
2021/12/27 09:13:32;;;;;;;53.25;18.90;;;;;;;;;;2304945;58;21037;-76
2021/12/27 09:16:01;;;;;;;51.55;20.23;;;;;;;;;;2543982;54;21590;-76
2021/12/27 09:18:29;;;;;;;45.75;18.33;;;;;;;;;;2305310;58;21045;-76
2021/12/27 09:20:56;;;;;;;51.47;20.62;;;;;;;;;;2544697;54;21058;-76
2021/12/27 09:23:23;;;;;;;51.90;19.97;;;;;;;;;;2306607;58;21045;-76
2021/12/27 09:25:50;;;;;;;48.53;18.85;;;;;;;;;;2306759;58;21173;-76
2021/12/27 09:28:17;;;;;;;47.13;20.27;;;;;;;;;;2306389;58;21057;-77
2021/12/27 09:30:44;;;;;;;50.03;19.75;;;;;;;;;;2306487;58;21057;-76
2021/12/27 09:33:11;;;;;;;50.08;20.52;;;;;;;;;;2306528;58;21689;-76
2021/12/27 09:35:38;;;;;;;51.03;20.05;;;;;;;;;;2307119;58;21053;-76
2021/12/27 09:38:08;;;;;;;49.13;20.35;;;;;;;;;;2306873;58;21718;-76
2021/12/27 09:40:35;;;;;;;47.67;20.85;;;;;;;;;;2306082;58;21133;-76
2021/12/27 09:43:02;;;;;;;50.10;20.60;;;;;;;;;;2306602;58;21658;-76
2021/12/27 09:45:29;;;;;;;52.75;21.70;;;;;;;;;;2544615;54;21113;-76
2021/12/27 09:47:56;;;;;;;46.55;19.58;;;;;;;;;;2544916;54;21106;-76
2021/12/27 09:50:25;;;;;;;52.35;20.65;;;;;;;;;;2543887;54;21599;-76
2021/12/27 09:52:52;;;;;;;48.13;20.60;;;;;;;;;;2306451;58;21046;-76
2021/12/27 09:55:19;;;;;;;43.10;18.52;;;;;;;;;;2305787;58;22604;-76
2021/12/27 09:57:46;;;;;;;48.65;21.45;;;;;;;;;;2544024;54;21602;-76
2021/12/27 10:00:16;;;;;;;54.30;21.52;;;;;;;;;;2305540;58;21078;-76
2021/12/27 10:02:43;;;;;;;63.35;21.83;;;;;;;;;;2545268;54;21072;-76
2021/12/27 10:05:10;;;;;;;50.67;22.15;;;;;;;;;;2307058;58;21097;-76
2021/12/27 10:07:41;;;;;;;50.75;21.20;;;;;;;;;;2306888;58;21061;-76
2021/12/27 10:10:09;;;;;;;50.97;22.02;;;;;;;;;;2545142;54;21117;-76
2021/12/27 10:12:37;;;;;;;53.70;21.27;;;;;;;;;;2306917;58;21560;-74
2021/12/27 10:15:05;;;;;;;51.00;20.42;;;;;;;;;;2545495;54;21454;-76
2021/12/27 10:17:32;;;;;;;52.67;19.30;;;;;;;;;;2306863;58;21072;-76
2021/12/27 10:20:09;;;;;;;47.62;21.42;;;;;;;;;;2306198;58;21101;-76
2021/12/27 10:22:39;;;;;;;50.72;22.37;;;;;;;;;;2307098;58;21628;-76
2021/12/27 10:25:09;;;;;;;50.25;22.33;;;;;;;;;;2306933;58;21548;-76
2021/12/27 10:27:36;;;;;;;57.60;22.58;;;;;;;;;;2307084;58;21049;-76
2021/12/27 10:30:10;;;;;;;52.17;22.05;;;;;;;;;;2306010;58;21112;-76
2021/12/27 10:32:37;;;;;;;49.05;21.67;;;;;;;;;;2307436;58;21607;-75
2021/12/27 10:35:05;;;;;;;54.30;23.20;;;;;;;;;;2545342;54;21053;-76
2021/12/27 10:37:32;;;;;;;51.58;22.62;;;;;;;;;;2307409;58;21593;-76
2021/12/27 10:40:01;;;;;;;51.97;22.37;;;;;;;;;;2306804;58;21064;-76
2021/12/27 10:42:29;;;;;;;50.75;23.35;;;;;;;;;;2545748;54;21061;-76
2021/12/27 10:44:58;;;;;;;52.55;21.90;;;;;;;;;;2307269;58;21650;-78
2021/12/27 10:47:35;;;;;;;55.10;22.60;;;;;;;;;;2545583;54;21615;-76
2021/12/27 10:50:05;;;;;;;55.65;21.87;;;;;;;;;;2306757;58;21069;-79
2021/12/27 10:52:42;;;;;;;52.65;21.30;;;;;;;;;;2545660;54;21618;-76
2021/12/27 10:55:09;;;;;;;64.47;26.25;;;;;;;;;;2307371;58;21562;-76
2021/12/27 10:57:36;;;;;;;127.32;29.23;;;;;;;;;;2307455;58;21153;-76
2021/12/27 11:00:35;;;;;;;55.35;23.17;;;;;;;;;;2306304;58;21116;-76
2021/12/27 11:03:02;;;;;;;50.63;22.42;;;;;;;;;;2257315;58;21188;-76
2021/12/27 11:05:30;;;;;;;55.12;22.35;;;;;;;;;;2545301;54;21116;-77
2021/12/27 11:08:00;;;;;;;54.90;23.55;;;;;;;;;;2545988;54;21073;-76
2021/12/27 11:10:27;;;;;;;61.55;25.02;;;;;;;;;;2544993;54;21053;-77
2021/12/27 11:13:04;;;;;;;;;;;;;;;;;;;;;
2021/12/27 11:15:35;;;;;;;59.17;24.05;;;;;;;;;;2301070;58;21110;-79
2021/12/27 11:18:02;;;;;;;57.55;24.08;;;;;;;;;;2536743;53;21089;-79
2021/12/27 11:20:29;;;;;;;54.80;23.27;;;;;;;;;;2300493;58;21087;-80
2021/12/27 11:22:58;;;;;;;61.50;24.90;;;;;;;;;;2301458;58;21091;-79
2021/12/27 11:25:29;;;;;;;56.03;24.05;;;;;;;;;;2301400;58;21099;-80
2021/12/27 11:27:56;;;;;;;53.90;22.33;;;;;;;;;;2301389;58;21051;-80
2021/12/27 11:30:24;;;;;;;54.55;24.50;;;;;;;;;;2301094;58;21542;-80
2021/12/27 11:33:05;;;;;;;51.10;23.40;;;;;;;;;;2300924;58;21024;-79
2021/12/27 11:35:37;;;;;;;64.82;25.35;;;;;;;;;;2300535;58;21032;-79
2021/12/27 11:38:04;;;;;;;59.55;23.85;;;;;;;;;;2536213;54;21131;-80
2021/12/27 11:40:42;;;;;;;60.97;24.83;;;;;;;;;;2300664;58;21557;-80
2021/12/27 11:43:09;;;;;;;64.43;25.23;;;;;;;;;;2300356;58;21087;-80
2021/12/27 11:45:40;;;;;;;65.35;25.42;;;;;;;;;;2301384;58;21048;-80
2021/12/27 11:48:08;;;;;;;59.35;25.27;;;;;;;;;;2301171;58;21661;-79
2021/12/27 11:51:01;;;;;;;58.47;26.30;;;;;;;;;;2300155;58;21173;-81
2021/12/27 11:53:28;;;;;;;60.33;24.63;;;;;;;;;;2300256;58;21617;-79
2021/12/27 11:55:55;;;;;;;62.28;25.25;;;;;;;;;;2536787;54;21616;-79
2021/12/27 11:58:29;;;;;;;62.22;25.02;;;;;;;;;;2301277;58;21040;-80
2021/12/27 12:00:56;;;;;;;60.08;26.02;;;;;;;;;;2301241;58;21075;-79
2021/12/27 12:03:37;;;;;;;60.83;25.50;;;;;;;;;;2301321;58;21080;-80
2021/12/27 12:06:05;;;;;;;59.22;25.67;;;;;;;;;;2302202;58;21012;-80
2021/12/27 12:08:50;;;;;;;54.38;23.25;;;;;;;;;;2302148;58;21088;-79
2021/12/27 12:11:17;;;;;;;60.30;25.98;;;;;;;;;;2302204;58;21075;-79
2021/12/27 12:13:47;;;;;;;59.20;25.90;;;;;;;;;;2301940;58;21020;-79
2021/12/27 12:16:15;;;;;;;60.78;26.50;;;;;;;;;;2301961;58;21056;-79
2021/12/27 12:18:43;;;;;;;58.15;24.85;;;;;;;;;;2300857;58;21673;-79
2021/12/27 12:21:29;;;;;;;63.20;26.02;;;;;;;;;;2302110;58;21043;-79
2021/12/27 12:23:57;;;;;;;58.80;24.70;;;;;;;;;;2300787;58;21554;-79
2021/12/27 12:26:24;;;;;;;62.03;26.70;;;;;;;;;;2301143;58;21083;-79
2021/12/27 12:28:59;;;;;;;61.15;24.33;;;;;;;;;;2299178;58;21039;-78
2021/12/27 12:31:28;;;;;;;56.35;23.52;;;;;;;;;;2299537;58;21052;-78
2021/12/27 12:34:07;;;;;;;55.12;24.73;;;;;;;;;;2300408;58;21043;-78
2021/12/27 12:36:44;;;;;;;61.92;25.52;;;;;;;;;;2300984;58;21061;-79
2021/12/27 12:39:11;;;;;;;65.05;26.27;;;;;;;;;;2300484;58;21122;-78
2021/12/27 12:41:40;;;;;;;56.33;25.50;;;;;;;;;;2536745;54;21558;-78
2021/12/27 12:44:08;;;;;;;63.35;24.60;;;;;;;;;;2299638;58;21056;-78
2021/12/27 12:46:36;;;;;;;56.45;25.65;;;;;;;;;;2300182;58;21048;-78
2021/12/27 12:49:06;;;;;;;61.37;25.88;;;;;;;;;;2299485;58;21039;-78
2021/12/27 12:51:34;;;;;;;58.63;25.80;;;;;;;;;;2299936;58;21040;-78
2021/12/27 12:54:02;;;;;;;68.07;27.17;;;;;;;;;;2300542;58;21048;-78
2021/12/27 12:56:29;;;;;;;57.75;25.00;;;;;;;;;;2299916;58;21100;-78
2021/12/27 12:58:56;;;;;;;56.42;25.33;;;;;;;;;;2299748;58;21107;-78
2021/12/27 13:01:23;;;;;;;62.58;24.20;;;;;;;;;;2300172;58;21095;-78
2021/12/27 13:03:55;;;;;;;56.00;25.33;;;;;;;;;;2536895;54;21126;-78
2021/12/27 13:06:22;;;;;;;58.87;25.05;;;;;;;;;;2299973;58;21016;-78
2021/12/27 13:08:52;;;;;;;61.15;24.55;;;;;;;;;;2300179;58;21117;-78
2021/12/27 13:11:20;;;;;;;62.85;25.35;;;;;;;;;;2299981;58;21048;-78
2021/12/27 13:13:47;;;;;;;60.70;24.92;;;;;;;;;;2536801;53;21641;-78
2021/12/27 13:16:14;;;;;;;69.72;27.50;;;;;;;;;;2300078;58;21112;-78
2021/12/27 13:18:41;;;;;;;58.95;24.05;;;;;;;;;;2299389;58;21060;-79
2021/12/27 13:21:10;;;;;;;58.50;25.58;;;;;;;;;;2299944;58;21044;-78
2021/12/27 13:23:38;;;;;;;63.73;26.00;;;;;;;;;;2300122;58;21084;-79
2021/12/27 13:26:07;;;;;;;67.15;25.55;;;;;;;;;;2300804;58;21044;-78
2021/12/27 13:28:36;;;;;;;65.30;25.75;;;;;;;;;;2300273;58;21055;-78
2021/12/27 13:31:04;;;;;;;53.97;25.92;;;;;;;;;;2299637;58;21038;-78
2021/12/27 13:33:33;;;;;;;60.83;25.77;;;;;;;;;;2300577;58;21506;-78
2021/12/27 13:36:01;;;;;;;70.22;27.62;;;;;;;;;;2300684;58;21127;-78
2021/12/27 13:38:29;;;;;;;70.68;25.83;;;;;;;;;;2300337;58;21162;-78
2021/12/27 13:40:56;;;;;;;60.95;26.60;;;;;;;;;;2538509;54;21031;-78
2021/12/27 13:43:24;;;;;;;63.58;27.62;;;;;;;;;;2300449;58;21040;-78
2021/12/27 13:45:51;;;;;;;71.78;27.45;;;;;;;;;;2300606;58;21044;-78
2021/12/27 13:48:28;;;;;;;61.28;25.52;;;;;;;;;;2300430;58;21047;-78
2021/12/27 13:50:55;;;;;;;62.80;25.50;;;;;;;;;;2538120;54;21104;-78
2021/12/27 13:53:22;;;;;;;68.32;26.40;;;;;;;;;;2300622;58;21778;-78
2021/12/27 13:55:49;;;;;;;63.30;26.75;;;;;;;;;;2299834;58;21044;-77
2021/12/27 13:58:18;;;;;;;61.13;25.95;;;;;;;;;;2299377;58;21147;-80
2021/12/27 14:00:45;;;;;;;65.97;27.90;;;;;;;;;;2536660;54;21568;-78
2021/12/27 14:03:29;;;;;;;57.85;23.80;;;;;;;;;;2299684;58;21092;-77
2021/12/27 14:05:57;;;;;;;59.47;24.80;;;;;;;;;;2299875;58;21565;-78
2021/12/27 14:08:25;;;;;;;61.90;27.42;;;;;;;;;;2299062;58;21587;-78
2021/12/27 14:11:03;;;;;;;63.17;27.45;;;;;;;;;;2536118;54;21060;-78
2021/12/27 14:13:52;;;;;;;64.37;27.40;;;;;;;;;;2299377;58;21593;-77
2021/12/27 14:16:23;;;;;;;59.35;26.15;;;;;;;;;;2536247;54;21048;-77
2021/12/27 14:19:04;;;;;;;61.65;26.50;;;;;;;;;;2299137;58;21538;-78
2021/12/27 14:21:32;;;;;;;57.65;24.83;;;;;;;;;;2536156;53;21135;-78
2021/12/27 14:24:03;;;;;;;57.53;26.00;;;;;;;;;;2535582;54;21052;-78
2021/12/27 14:26:30;;;;;;;62.65;27.70;;;;;;;;;;2298811;58;21518;-77
2021/12/27 14:29:14;;;;;;;64.32;26.12;;;;;;;;;;2299727;58;21048;-78
2021/12/27 14:31:41;;;;;;;58.03;25.48;;;;;;;;;;2299382;58;21047;-77
2021/12/27 14:34:08;;;;;;;62.15;26.92;;;;;;;;;;2299041;58;21119;-76